Roslyn, Washington
Current Conditions -  °F | °C
As of 10:21 AM on Thursday 27 Nov 2014 (Local Time) from KELN Reporting Station
Overcast Overcast  
Wind Chill: 39°   Ceiling: 5000
Heat Index: 42°   Visibility: 7mi
Dew Point: 37°   Wind: 5mph
Humidity: 82%   Direction: 20°NNE
Pressure: 29.87"   Gusts: NA
Location:  47.22°N, 120.99°W
Report Text: KELN 271821Z AUTO 02004KT 7SM FEW002 OVC050 06/03 A2987 RMK AO2 T00560028
Loading
Personal Weather Stations






























Interactive Weather Map New forecast layout! Learn more

10-Day Weather Forecast

Advertisements
Track Severe Weather on mobile